Time;durP1;ratioP1;P1;durP2;ratioP2;P2;SDS_P1;SDS_P2;PMS_P1;PMS_P2;Temp;Humidity;BMP_temperature;BMP_pressure;BME280_temperature;BME280_humidity;BME280_pressure;Samples;Min_cycle;Max_cycle;Signal;HPM_P1;HPM_P2
2023/06/04 00:00:05;;;;;;;;;;;;;;;22.14;36.22;101526.89;2336800;74;51487;-75
2023/06/04 00:03:06;;;;;;;;;;;;;;;22.13;36.22;101524.72;2314546;76;49612;-75
2023/06/04 00:06:08;;;;;;;;;;;;;;;22.13;36.23;101522.02;2341242;75;50642;-75
2023/06/04 00:09:10;;;;;;;;;;;;;;;22.13;36.31;101518.50;2341216;74;50260;-75
2023/06/04 00:12:11;;;;;;;;;;;;;;;22.13;36.33;101517.14;2341255;75;50413;-75
2023/06/04 00:15:16;;;;;;;;;;;;;;;22.13;36.39;101511.75;2341175;75;50699;-75
2023/06/04 00:18:17;;;;;;;;;;;;;;;22.13;36.44;101509.06;2341046;75;50344;-76
2023/06/04 00:21:19;;;;;;;;;;;;;;;22.14;36.40;101509.38;2340525;75;50661;-75
2023/06/04 00:24:20;;;;;;;;;;;;;;;22.15;36.56;101512.41;2297352;77;50727;-74
2023/06/04 00:27:22;;;;;;;;;;;;;;;22.12;36.56;101502.84;2275840;77;52535;-76
2023/06/04 00:30:24;;;;;;;;;;;;;;;22.15;36.63;101506.50;2297173;77;51473;-74
2023/06/04 00:33:25;;;;;;;;;;;;;;;22.15;36.71;101503.81;2297128;77;51462;-74
2023/06/04 00:36:27;;;;;;;;;;;;;;;22.16;36.76;101493.86;2296989;77;50382;-74
2023/06/04 00:39:29;;;;;;;;;;;;;;;22.14;36.73;101500.80;2275873;77;49655;-74
2023/06/04 00:42:30;;;;;;;;;;;;;;;22.15;36.83;101496.24;2297246;77;51542;-73
2023/06/04 00:45:32;;;;;;;;;;;;;;;22.15;36.88;101499.77;2310482;76;51548;-73
2023/06/04 00:48:36;;;;;;;;;;;;;;;22.14;36.87;101491.85;2297065;76;51569;-73
2023/06/04 00:51:37;;;;;;;;;;;;;;;22.18;36.92;101499.91;2301915;77;22522;-74
2023/06/04 00:54:40;;;;;;;;;;;;;;;22.18;36.96;101498.55;2272860;76;51458;-73
2023/06/04 00:57:41;;;;;;;;;;;;;;;22.18;37.00;101505.30;2272802;77;50284;-73
2023/06/04 01:00:44;;;;;;;;;;;;;;;22.16;37.08;101496.03;2301546;76;50719;-73
2023/06/04 01:03:46;;;;;;;;;;;;;;;22.15;37.17;101492.20;2272740;77;51158;-73
2023/06/04 01:06:49;;;;;;;;;;;;;;;22.18;37.12;101505.30;2301385;76;50677;-74
2023/06/04 01:09:51;;;;;;;;;;;;;;;22.15;37.25;101494.89;2301521;76;51580;-74
2023/06/04 01:12:52;;;;;;;;;;;;;;;22.15;37.25;101492.20;2318664;75;50732;-73
2023/06/04 01:15:54;;;;;;;;;;;;;;;22.15;37.20;101500.28;2279638;76;51684;-73
2023/06/04 01:18:57;;;;;;;;;;;;;;;22.14;37.28;101491.85;2316942;76;52561;-74
2023/06/04 01:22:01;;;;;;;;;;;;;;;22.14;37.20;101489.16;2347003;76;51569;-73
2023/06/04 01:25:03;;;;;;;;;;;;;;;22.15;37.20;101488.16;2347169;76;49981;-74
2023/06/04 01:28:06;;;;;;;;;;;;;;;22.14;37.30;101490.02;2317073;76;54024;-74
2023/06/04 01:31:10;;;;;;;;;;;;;;;22.14;37.48;101491.85;2346985;76;51592;-74
2023/06/04 01:34:11;;;;;;;;;;;;;;;22.15;37.71;101481.41;2347024;76;51487;-74
2023/06/04 01:37:13;;;;;;;;;;;;;;;22.15;37.51;101485.45;2317106;76;50068;-73
2023/06/04 01:40:15;;;;;;;;;;;;;;;22.17;37.58;101485.59;2347026;76;51489;-73
2023/06/04 01:43:16;;;;;;;;;;;;;;;22.18;37.61;101482.38;2334381;75;51414;-74
2023/06/04 01:46:18;;;;;;;;;;;;;;;22.18;37.60;101499.91;2320645;75;51470;-74
2023/06/04 01:49:19;;;;;;;;;;;;;;;22.18;37.60;101490.47;2305182;75;51511;-74
2023/06/04 01:52:21;;;;;;;;;;;;;;;22.17;37.71;101485.59;2294296;77;51178;-74
2023/06/04 01:55:25;;;;;;;;;;;;;;;22.18;37.66;101476.47;2320720;76;51508;-73
2023/06/04 01:58:31;;;;;;;;;;;;;;;22.18;37.67;101481.03;2312967;76;22354;-74
2023/06/04 02:01:32;;;;;;;;;;;;;;;22.18;37.70;101483.21;2320518;76;23190;-73
2023/06/04 02:04:36;;;;;;;;;;;;;;;22.18;37.74;101483.73;2295786;77;52399;-73
2023/06/04 02:07:38;;;;;;;;;;;;;;;22.17;37.77;101476.68;2312863;76;22293;-73
2023/06/04 02:10:40;;;;;;;;;;;;;;;22.18;37.81;101474.30;2312829;77;50307;-73
2023/06/04 02:13:41;;;;;;;;;;;;;;;22.16;37.80;101469.08;2317703;75;49736;-73
2023/06/04 02:16:43;;;;;;;;;;;;;;;22.17;37.78;101470.77;2317512;75;49515;-72
2023/06/04 02:19:44;;;;;;;;;;;;;;;22.18;37.90;101471.60;2279501;77;50327;-73
2023/06/04 02:22:47;;;;;;;;;;;;;;;22.16;37.84;101469.08;2314967;75;50417;-73
2023/06/04 02:25:49;;;;;;;;;;;;;;;22.17;37.90;101468.08;2335301;75;51636;-73
2023/06/04 02:28:51;;;;;;;;;;;;;;;22.18;37.85;101471.60;2334660;75;50154;-73
2023/06/04 02:31:52;;;;;;;;;;;;;;;22.18;37.95;101468.39;2335065;75;52460;-73
2023/06/04 02:34:55;;;;;;;;;;;;;;;22.18;38.00;101469.73;2352731;75;50719;-73
2023/06/04 02:38:01;;;;;;;;;;;;;;;22.18;38.06;101466.21;2353285;75;51544;-75
2023/06/04 02:41:00;;;;;;;;;;;;;;;22.18;38.09;101470.25;2336107;75;22170;-74
2023/06/04 02:44:03;;;;;;;;;;;;;;;22.17;38.15;101472.12;2319531;76;50633;-73
2023/06/04 02:47:05;;;;;;;;;;;;;;;22.19;38.14;101471.94;2339458;76;50404;-74
2023/06/04 02:50:07;;;;;;;;;;;;;;;22.18;38.21;101472.95;2310235;75;50720;-74
2023/06/04 02:53:08;;;;;;;;;;;;;;;22.17;38.21;101481.55;2273865;76;50662;-73
2023/06/04 02:56:10;;;;;;;;;;;;;;;22.18;38.25;101482.38;2299147;76;50809;-73
2023/06/04 02:59:13;;;;;;;;;;;;;;;22.16;38.29;101476.34;2299054;76;51490;-74
2023/06/04 03:02:15;;;;;;;;;;;;;;;22.15;38.33;101479.55;2330629;76;22343;-73
2023/06/04 03:05:17;;;;;;;;;;;;;;;22.15;38.39;101484.11;2330503;76;50738;-74
2023/06/04 03:08:18;;;;;;;;;;;;;;;22.15;38.50;101474.67;2298254;76;50680;-74
2023/06/04 03:11:20;;;;;;;;;;;;;;;22.17;38.45;101478.03;2298903;76;50636;-73
2023/06/04 03:14:23;;;;;;;;;;;;;;;22.14;38.47;101477.03;2321242;76;50631;-74
2023/06/04 03:17:26;;;;;;;;;;;;;;;22.15;38.52;101477.37;2300114;76;51639;-73
2023/06/04 03:20:27;;;;;;;;;;;;;;;22.13;38.58;101477.55;2335502;76;50327;-73
2023/06/04 03:23:29;;;;;;;;;;;;;;;22.14;38.60;101477.03;2335642;76;50452;-73
2023/06/04 03:26:31;;;;;;;;;;;;;;;22.15;38.65;101476.85;2301385;76;49486;-74
2023/06/04 03:29:32;;;;;;;;;;;;;;;22.15;38.65;101473.33;2300497;76;50040;-73
2023/06/04 03:32:34;;;;;;;;;;;;;;;22.13;38.71;101469.98;2335901;76;50606;-74
2023/06/04 03:35:36;;;;;;;;;;;;;;;22.13;38.75;101476.72;2300693;76;50090;-74
2023/06/04 03:38:38;;;;;;;;;;;;;;;22.13;38.68;101485.63;2301531;76;51010;-74
2023/06/04 03:41:40;;;;;;;;;;;;;;;22.12;38.75;101477.75;2275462;76;50646;-73
2023/06/04 03:44:46;;;;;;;;;;;;;;;22.13;38.70;101484.80;2317775;76;50778;-74
2023/06/04 03:47:48;;;;;;;;;;;;;;;22.12;38.77;101485.84;2298553;76;51468;-73
2023/06/04 03:50:52;;;;;;;;;;;;;;;22.13;38.81;101488.84;2300324;76;51422;-74
2023/06/04 03:53:55;;;;;;;;;;;;;;;22.13;38.80;101483.45;2302774;77;22406;-73
2023/06/04 03:56:58;;;;;;;;;;;;;;;22.14;38.84;101483.28;2303349;77;51535;-74
2023/06/04 04:00:03;;;;;;;;;;;;;;;22.15;38.87;101484.11;2303109;76;50679;-74
2023/06/04 04:03:09;;;;;;;;;;;;;;;22.16;38.98;101481.73;2303486;76;50610;-73
2023/06/04 04:06:08;;;;;;;;;;;;;;;22.15;38.96;101484.94;2303335;76;22275;-73
2023/06/04 04:09:11;;;;;;;;;;;;;;;22.13;39.07;101480.76;2303204;77;51498;-74
2023/06/04 04:12:14;;;;;;;;;;;;;;;22.14;39.04;101489.16;2303369;76;51411;-73
2023/06/04 04:15:16;;;;;;;;;;;;;;;22.13;39.03;101486.98;2304374;76;21721;-74
2023/06/04 04:18:19;;;;;;;;;;;;;;;22.14;39.15;101485.98;2303473;76;50090;-74
2023/06/04 04:21:21;;;;;;;;;;;;;;;22.16;39.21;101491.99;2304548;76;50630;-73
2023/06/04 04:24:24;;;;;;;;;;;;;;;22.13;39.44;101487.50;2303947;76;52330;-74
2023/06/04 04:27:26;;;;;;;;;;;;;;;22.16;39.41;101496.55;2330558;76;51612;-72
2023/06/04 04:30:28;;;;;;;;;;;;;;;22.17;38.86;101499.59;2276932;76;52642;-72
2023/06/04 04:33:32;;;;;;;;;;;;;;;22.20;38.87;101498.41;2302630;76;50694;-72
2023/06/04 04:36:36;;;;;;;;;;;;;;;22.21;38.79;101508.99;2302976;76;51491;-72
2023/06/04 04:39:37;;;;;;;;;;;;;;;22.24;38.78;101498.34;2303112;76;22408;-77
2023/06/04 04:42:39;;;;;;;;;;;;;;;22.24;38.85;101499.18;2275759;76;51030;-74
2023/06/04 04:45:40;;;;;;;;;;;;;;;22.27;39.02;101496.14;2302044;76;51473;-72
2023/06/04 04:48:42;;;;;;;;;;;;;;;22.27;39.46;101496.14;2321401;76;51656;-73
2023/06/04 04:51:43;;;;;;;;;;;;;;;22.30;39.45;101499.80;2338627;76;51398;-73
2023/06/04 04:54:45;;;;;;;;;;;;;;;22.35;39.33;101504.12;2312305;76;51076;-72
2023/06/04 04:57:47;;;;;;;;;;;;;;;22.38;39.30;101501.04;2313796;76;50075;-73
2023/06/04 05:00:48;;;;;;;;;;;;;;;22.42;39.19;101498.80;2313635;76;50398;-74
2023/06/04 05:03:50;;;;;;;;;;;;;;;22.49;38.76;101500.23;2312735;76;50083;-73
2023/06/04 05:06:51;;;;;;;;;;;;;;;22.53;38.51;101498.33;2288366;76;52514;-73
2023/06/04 05:09:53;;;;;;;;;;;;;;;22.57;38.23;101499.61;2314014;76;51455;-73
2023/06/04 05:12:55;;;;;;;;;;;;;;;22.64;38.02;101502.40;2313985;76;51553;-72
2023/06/04 05:15:57;;;;;;;;;;;;;;;22.69;37.73;101508.06;2346086;75;50767;-73
2023/06/04 05:19:00;;;;;;;;;;;;;;;22.75;37.54;101508.64;2326884;75;51216;-73
2023/06/04 05:22:02;;;;;;;;;;;;;;;22.80;37.31;101510.25;2304298;75;51551;-73
2023/06/04 05:25:05;;;;;;;;;;;;;;;22.83;37.24;101510.39;2348275;75;50643;-73
2023/06/04 05:28:07;;;;;;;;;;;;;;;22.88;37.23;101513.88;2348094;75;51525;-73
2023/06/04 05:31:08;;;;;;;;;;;;;;;22.93;36.90;101508.22;2328253;75;50075;-72
2023/06/04 05:34:11;;;;;;;;;;;;;;;22.98;36.96;101508.52;2328247;74;51638;-74
2023/06/04 05:37:12;;;;;;;;;;;;;;;23.02;36.95;101508.47;2348131;75;50056;-73
2023/06/04 05:40:14;;;;;;;;;;;;;;;23.09;36.75;101517.96;2348154;75;51873;-74
2023/06/04 05:43:15;;;;;;;;;;;;;;;23.14;36.52;101511.47;2328204;75;50185;-74
2023/06/04 05:46:17;;;;;;;;;;;;;;;23.21;36.33;101515.60;2327531;75;50410;-74
2023/06/04 05:49:19;;;;;;;;;;;;;;;23.25;36.17;101525.83;2321970;75;50549;-73
2023/06/04 05:52:21;;;;;;;;;;;;;;;23.30;36.13;101520.34;2290136;77;51729;-74
2023/06/04 05:55:22;;;;;;;;;;;;;;;23.37;35.96;101519.90;2267241;77;53231;-75
2023/06/04 05:58:24;;;;;;;;;;;;;;;23.43;35.89;101527.24;2269871;77;51441;-75
2023/06/04 06:01:26;;;;;;;;;;;;;;;23.44;35.90;101518.93;2261488;77;51434;-73
2023/06/04 06:04:27;;;;;;;;;;;;;;;23.53;35.82;101526.89;2258697;77;51502;-75
2023/06/04 06:07:29;;;;;;;;;;;;;;;23.55;35.72;101531.07;2258465;77;50014;-75
2023/06/04 06:10:31;;;;;;;;;;;;;;;23.59;35.55;101526.13;2259086;78;50808;-75
2023/06/04 06:13:33;;;;;;;;;;;;;;;23.63;35.49;101540.91;2265307;77;50660;-74
2023/06/04 06:16:34;;;;;;;;;;;;;;;23.66;35.45;101532.40;2278386;77;51495;-76
2023/06/04 06:19:37;;;;;;;;;;;;;;;23.69;35.41;101528.81;2273176;77;52378;-76
2023/06/04 06:22:39;;;;;;;;;;;;;;;23.69;35.33;101528.81;2301240;77;51543;-76
2023/06/04 06:25:40;;;;;;;;;;;;;;;23.73;35.21;101532.50;2262749;77;51591;-77
2023/06/04 06:28:42;;;;;;;;;;;;;;;23.75;35.14;101543.95;2282209;77;51376;-76
2023/06/04 06:31:44;;;;;;;;;;;;;;;23.76;35.09;101545.61;2255244;77;49667;-76
2023/06/04 06:34:46;;;;;;;;;;;;;;;23.77;35.01;101541.38;2281733;77;50245;-77
2023/06/04 06:37:47;;;;;;;;;;;;;;;23.79;34.96;101547.42;2256146;77;50419;-77
2023/06/04 06:40:49;;;;;;;;;;;;;;;23.80;34.91;101541.50;2257359;77;50590;-77
2023/06/04 06:43:50;;;;;;;;;;;;;;;23.84;34.92;101546.81;2266119;77;52473;-76
2023/06/04 06:46:52;;;;;;;;;;;;;;;23.88;34.97;101546.75;2264300;77;50492;-77
2023/06/04 06:49:54;;;;;;;;;;;;;;;23.91;35.01;101555.81;2259541;77;51514;-77
2023/06/04 06:52:56;;;;;;;;;;;;;;;23.91;34.95;101547.18;2316653;75;50673;-77
2023/06/04 06:55:57;;;;;;;;;;;;;;;23.94;34.89;101546.47;2308215;75;50128;-76
2023/06/04 06:58:59;;;;;;;;;;;;;;;23.96;34.85;101543.89;2333951;75;50893;-75
2023/06/04 07:02:01;;;;;;;;;;;;;;;23.96;34.83;101547.95;2319153;75;51523;-75
2023/06/04 07:05:02;;;;;;;;;;;;;;;23.96;34.75;101547.95;2311181;75;51666;-76
2023/06/04 07:08:04;;;;;;;;;;;;;;;23.98;34.67;101547.77;2333931;75;51707;-77
2023/06/04 07:11:06;;;;;;;;;;;;;;;23.99;34.49;101544.84;2335184;75;50273;-77
2023/06/04 07:14:08;;;;;;;;;;;;;;;24.00;34.48;101552.47;2335134;75;51518;-77
2023/06/04 07:17:10;;;;;;;;;;;;;;;24.01;34.40;101555.47;2351759;75;51590;-77
2023/06/04 07:20:11;;;;;;;;;;;;;;;24.05;34.29;101548.65;2300453;76;50080;-77
2023/06/04 07:23:13;;;;;;;;;;;;;;;24.06;34.57;101549.79;2296056;77;51587;-77
2023/06/04 07:26:14;;;;;;;;;;;;;;;24.03;35.04;101552.89;2312540;77;51507;-76
2023/06/04 07:29:16;;;;;;;;;;;;;;;23.99;35.01;101543.49;2295876;77;51593;-76
2023/06/04 07:32:18;;;;;;;;;;;;;;;24.02;35.08;101550.38;2312431;77;51353;-76
2023/06/04 07:35:19;;;;;;;;;;;;;;;23.98;35.09;101537.78;2319072;75;51573;-77
2023/06/04 07:38:21;;;;;;;;;;;;;;;24.01;34.98;101546.84;2328511;75;51459;-77
2023/06/04 07:41:22;;;;;;;;;;;;;;;24.05;34.78;101551.36;2320322;76;51147;-77
2023/06/04 07:44:24;;;;;;;;;;;;;;;24.04;34.62;101551.02;2293973;77;52408;-76
2023/06/04 07:47:26;;;;;;;;;;;;;;;24.03;34.02;101551.54;2339049;75;50456;-76
2023/06/04 07:50:28;;;;;;;;;;;;;;;24.00;33.42;101549.23;2317664;75;50768;-75
2023/06/04 07:53:29;;;;;;;;;;;;;;;23.97;32.84;101546.08;2305459;76;51422;-76
2023/06/04 07:56:31;;;;;;;;;;;;;;;23.95;32.35;101543.59;2272601;77;49360;-76
2023/06/04 07:59:33;;;;;;;;;;;;;;;23.92;32.23;101550.75;2272994;76;50586;-76
2023/06/04 08:02:34;;;;;;;;;;;;;;;23.92;31.36;101548.05;2272890;77;51566;-77
2023/06/04 08:05:36;;;;;;;;;;;;;;;23.83;29.53;101542.45;2272545;77;51008;-76
2023/06/04 08:08:37;;;;;;;;;;;;;;;23.86;27.11;101550.98;2272305;77;52341;-77
2023/06/04 08:11:39;;;;;;;;;;;;;;;23.88;27.29;101550.81;2280407;77;50731;-77
2023/06/04 08:14:41;;;;;;;;;;;;;;;23.84;27.33;101545.46;2309184;77;51347;-76
2023/06/04 08:17:42;;;;;;;;;;;;;;;23.81;28.04;101555.31;2307694;75;51499;-76
2023/06/04 08:20:44;;;;;;;;;;;;;;;23.71;27.53;101547.51;2317611;75;50043;-76
2023/06/04 08:23:47;;;;;;;;;;;;;;;23.69;26.71;101547.72;2319179;75;52214;-77
2023/06/04 08:26:50;;;;;;;;;;;;;;;23.65;27.50;101554.53;2348787;74;22419;-77
2023/06/04 08:29:52;;;;;;;;;;;;;;;23.65;26.59;101552.36;2319129;75;51558;-77
2023/06/04 08:32:53;;;;;;;;;;;;;;;23.63;26.82;101547.13;2318992;75;52743;-77
2023/06/04 08:35:55;;;;;;;;;;;;;;;23.60;26.41;101546.18;2319148;75;50530;-78
2023/06/04 08:38:57;;;;;;;;;;;;;;;23.58;26.62;101538.81;2318910;75;52347;-77
2023/06/04 08:42:03;;;;;;;;;;;;;;;23.57;27.34;101545.74;2319044;75;50744;-77
2023/06/04 08:45:05;;;;;;;;;;;;;;;23.51;26.24;101558.69;2348763;75;51473;-77
2023/06/04 08:48:07;;;;;;;;;;;;;;;23.46;26.50;101549.81;2333800;75;51386;-77
2023/06/04 08:51:09;;;;;;;;;;;;;;;23.44;26.57;101551.86;2347019;76;50774;-77
2023/06/04 08:54:11;;;;;;;;;;;;;;;23.39;26.13;101551.09;2337821;76;50292;-77
2023/06/04 08:57:13;;;;;;;;;;;;;;;23.39;26.23;101554.30;2299672;76;52432;-76
2023/06/04 09:00:15;;;;;;;;;;;;;;;23.39;26.42;101556.48;2333894;76;51335;-76
2023/06/04 09:03:18;;;;;;;;;;;;;;;23.39;27.42;101554.30;2334348;76;50427;-76
2023/06/04 09:06:20;;;;;;;;;;;;;;;23.37;27.85;101555.01;2334122;76;22503;-76
2023/06/04 09:09:22;;;;;;;;;;;;;;;23.35;28.33;101548.47;2298828;76;51653;-77
2023/06/04 09:12:24;;;;;;;;;;;;;;;23.35;28.55;101548.95;2334336;76;50348;-76
2023/06/04 09:15:26;;;;;;;;;;;;;;;23.33;28.89;101544.29;2334259;76;50376;-77
2023/06/04 09:18:27;;;;;;;;;;;;;;;23.32;29.19;101552.88;2320147;76;50715;-76
2023/06/04 09:21:29;;;;;;;;;;;;;;;23.31;29.47;101550.39;2340819;75;50983;-76
2023/06/04 09:24:41;;;;;;;;;;;;;;;23.30;29.63;101543.30;2341200;75;51514;-76
2023/06/04 09:27:42;;;;;;;;;;;;;;;23.30;29.75;101550.05;2336232;76;50167;-77
2023/06/04 09:30:45;;;;;;;;;;;;;;;23.28;29.93;101552.13;2340933;75;51412;-76
2023/06/04 09:33:49;;;;;;;;;;;;;;;23.26;30.08;101546.39;2314095;76;52621;-76
2023/06/04 09:36:52;;;;;;;;;;;;;;;23.28;30.18;101546.73;2336011;76;50449;-77
2023/06/04 09:39:56;;;;;;;;;;;;;;;23.23;30.33;101548.13;2336474;74;51557;-76
2023/06/04 09:42:58;;;;;;;;;;;;;;;23.24;30.48;101547.61;2336619;76;50670;-76
2023/06/04 09:46:10;;;;;;;;;;;;;;;23.21;30.64;101550.18;2339052;76;51682;-76
2023/06/04 09:49:12;;;;;;;;;;;;;;;23.18;30.80;101541.64;2324479;74;49958;-76
2023/06/04 09:52:14;;;;;;;;;;;;;;;23.22;30.83;101542.91;2341295;75;51424;-75
2023/06/04 09:55:19;;;;;;;;;;;;;;;23.19;30.91;101544.13;2351543;75;51420;-76
2023/06/04 09:58:21;;;;;;;;;;;;;;;23.18;31.01;101549.22;2352988;75;22399;-76
2023/06/04 10:01:24;;;;;;;;;;;;;;;23.16;31.16;101550.44;2353111;74;24619;-76
2023/06/04 10:04:25;;;;;;;;;;;;;;;23.16;31.23;101556.67;2352780;75;50683;-76
2023/06/04 10:07:27;;;;;;;;;;;;;;;23.17;31.31;101538.60;2352647;75;50620;-76
2023/06/04 10:10:28;;;;;;;;;;;;;;;23.17;31.34;101539.46;2362146;75;49583;-75
2023/06/04 10:13:30;;;;;;;;;;;;;;;23.17;31.44;101538.11;2352857;75;50628;-75
2023/06/04 10:16:32;;;;;;;;;;;;;;;23.17;31.48;101536.77;2350700;75;50321;-76
2023/06/04 10:19:34;;;;;;;;;;;;;;;23.16;31.49;101539.13;2339196;74;50271;-76
2023/06/04 10:22:36;;;;;;;;;;;;;;;23.16;31.46;101540.47;2362149;75;52794;-76
2023/06/04 10:25:38;;;;;;;;;;;;;;;23.16;31.56;101533.72;2361943;75;51458;-76
2023/06/04 10:28:41;;;;;;;;;;;;;;;23.15;31.62;101535.28;2352259;75;50277;-75
2023/06/04 10:31:42;;;;;;;;;;;;;;;23.14;31.71;101535.77;2352507;74;51582;-75
2023/06/04 10:34:44;;;;;;;;;;;;;;;23.12;31.81;101534.29;2362049;75;51650;-75
2023/06/04 10:37:47;;;;;;;;;;;;;;;23.14;31.85;101543.87;2352529;75;51270;-76
2023/06/04 10:40:49;;;;;;;;;;;;;;;23.11;31.98;101535.33;2352930;74;22281;-76
2023/06/04 10:43:52;;;;;;;;;;;;;;;23.13;32.02;101533.28;2352697;75;51591;-76
2023/06/04 10:46:53;;;;;;;;;;;;;;;23.10;32.11;101533.15;2350365;75;51804;-76
2023/06/04 10:49:55;;;;;;;;;;;;;;;23.10;32.18;101533.15;2342100;74;50403;-76
2023/06/04 10:53:02;;;;;;;;;;;;;;;23.09;32.22;101527.41;2352585;75;50584;-76
2023/06/04 10:56:03;;;;;;;;;;;;;;;23.10;32.28;101524.22;2361739;75;22560;-76
2023/06/04 10:59:14;;;;;;;;;;;;;;;23.09;32.33;101520.66;2334498;74;51716;-75
2023/06/04 11:02:16;;;;;;;;;;;;;;;23.11;32.33;101523.18;2361902;75;50643;-76
2023/06/04 11:05:17;;;;;;;;;;;;;;;23.09;32.37;101526.06;2352608;75;50713;-76
2023/06/04 11:08:20;;;;;;;;;;;;;;;23.10;32.38;101522.88;2352543;75;51465;-76
2023/06/04 11:11:22;;;;;;;;;;;;;;;23.10;32.38;101528.27;2334793;75;51769;-76
2023/06/04 11:14:23;;;;;;;;;;;;;;;23.09;32.38;101519.83;2362165;75;51456;-77
2023/06/04 11:17:25;;;;;;;;;;;;;;;23.08;32.45;101512.25;2341919;75;51364;-76
2023/06/04 11:20:27;;;;;;;;;;;;;;;23.09;32.42;101520.66;2342367;74;50242;-76
2023/06/04 11:23:28;;;;;;;;;;;;;;;23.10;32.52;101517.47;2334892;75;52345;-76
2023/06/04 11:26:33;;;;;;;;;;;;;;;23.09;32.54;101508.52;2361739;75;51605;-76
2023/06/04 11:29:35;;;;;;;;;;;;;;;23.09;32.59;101510.38;2352618;74;50777;-76
2023/06/04 11:32:36;;;;;;;;;;;;;;;23.11;32.54;101511.03;2352644;75;51412;-76
2023/06/04 11:35:41;;;;;;;;;;;;;;;23.10;32.58;101512.91;2362123;75;52568;-76
2023/06/04 11:38:43;;;;;;;;;;;;;;;23.09;32.68;101513.08;2361903;75;50464;-75
2023/06/04 11:41:45;;;;;;;;;;;;;;;23.08;32.70;101510.08;2361919;75;50238;-76
2023/06/04 11:44:48;;;;;;;;;;;;;;;23.08;32.72;101512.25;2352578;75;50320;-75
2023/06/04 11:47:56;;;;;;;;;;;;;;;23.04;32.78;101506.91;2342659;75;22373;-76
2023/06/04 11:50:58;;;;;;;;;;;;;;;23.06;32.85;101506.20;2295531;76;51675;-76
2023/06/04 11:53:59;;;;;;;;;;;;;;;23.06;32.91;101507.55;2310369;75;51467;-75
2023/06/04 11:57:02;;;;;;;;;;;;;;;23.07;32.91;101507.89;2301552;76;51522;-75
2023/06/04 12:00:09;;;;;;;;;;;;;;;23.05;32.97;101501.84;2284635;76;49934;-76
2023/06/04 12:03:07;;;;;;;;;;;;;;;23.05;32.99;101500.49;2301497;76;22282;-75
2023/06/04 12:06:12;;;;;;;;;;;;;;;23.07;33.01;101502.98;2301528;76;50627;-76
2023/06/04 12:09:16;;;;;;;;;;;;;;;23.04;33.09;101498.80;2284572;77;52344;-77
2023/06/04 12:12:19;;;;;;;;;;;;;;;23.07;33.08;101501.64;2284145;76;51733;-76
2023/06/04 12:15:22;;;;;;;;;;;;;;;23.06;33.10;101494.58;2301644;76;50293;-76
2023/06/04 12:18:25;;;;;;;;;;;;;;;23.06;33.15;101490.53;2304232;76;51557;-76
2023/06/04 12:21:29;;;;;;;;;;;;;;;23.06;33.20;101499.45;2341069;74;50621;-76
2023/06/04 12:24:31;;;;;;;;;;;;;;;23.04;33.26;101498.31;2340938;76;50770;-76
2023/06/04 12:27:33;;;;;;;;;;;;;;;23.04;33.30;101498.80;2350057;75;52527;-76
2023/06/04 12:30:40;;;;;;;;;;;;;;;23.07;33.32;101484.95;2350281;75;50300;-77
2023/06/04 12:33:41;;;;;;;;;;;;;;;23.08;33.36;101483.91;2340836;75;51483;-75
2023/06/04 12:36:43;;;;;;;;;;;;;;;23.07;33.40;101480.91;2340827;76;51488;-76
2023/06/04 12:39:45;;;;;;;;;;;;;;;23.04;33.48;101485.31;2323709;74;51731;-76
2023/06/04 12:42:46;;;;;;;;;;;;;;;23.08;33.48;101489.30;2341026;76;50076;-76
2023/06/04 12:45:48;;;;;;;;;;;;;;;23.09;33.50;101480.69;2346022;75;49728;-75
2023/06/04 12:48:52;;;;;;;;;;;;;;;23.06;33.67;101479.20;2320513;76;50626;-77
2023/06/04 12:51:54;;;;;;;;;;;;;;;23.04;33.77;101477.20;2323403;76;51198;-76
2023/06/04 12:54:56;;;;;;;;;;;;;;;23.02;33.83;101482.82;2351337;75;50355;-76
2023/06/04 12:57:57;;;;;;;;;;;;;;;23.01;33.88;101478.95;2350871;75;50733;-76
2023/06/04 13:00:59;;;;;;;;;;;;;;;22.99;34.05;101485.05;2344272;74;50253;-76
2023/06/04 13:04:01;;;;;;;;;;;;;;;22.97;34.09;101480.38;2344456;76;50188;-76
2023/06/04 13:07:03;;;;;;;;;;;;;;;22.97;34.13;101480.38;2344360;76;51337;-76
2023/06/04 13:10:05;;;;;;;;;;;;;;;23.00;34.12;101474.59;2344516;74;50737;-76
2023/06/04 13:13:07;;;;;;;;;;;;;;;22.99;34.15;101479.66;2351534;75;51522;-76
2023/06/04 13:16:08;;;;;;;;;;;;;;;23.01;34.16;101470.86;2341795;75;51101;-76
2023/06/04 13:19:10;;;;;;;;;;;;;;;23.01;34.18;101465.45;2328911;74;50235;-76
2023/06/04 13:22:12;;;;;;;;;;;;;;;23.02;34.22;101476.59;2344511;76;51523;-76
2023/06/04 13:25:14;;;;;;;;;;;;;;;23.02;34.26;101477.94;2351323;75;51392;-76
2023/06/04 13:28:17;;;;;;;;;;;;;;;23.02;34.30;101474.72;2324416;76;51014;-76
2023/06/04 13:31:18;;;;;;;;;;;;;;;23.04;34.32;101474.52;2344398;74;51587;-76
2023/06/04 13:34:20;;;;;;;;;;;;;;;23.03;34.37;101468.80;2344613;76;50243;-76
2023/06/04 13:37:21;;;;;;;;;;;;;;;23.04;34.40;101462.36;2344261;76;50231;-76
2023/06/04 13:40:23;;;;;;;;;;;;;;;23.05;34.43;101464.05;2351532;75;51454;-77
2023/06/04 13:43:24;;;;;;;;;;;;;;;23.04;34.47;101460.53;2351272;75;50766;-76
2023/06/04 13:46:26;;;;;;;;;;;;;;;23.05;34.52;101458.66;2342396;76;51604;-76
2023/06/04 13:49:28;;;;;;;;;;;;;;;23.07;34.55;101460.66;2331064;74;50692;-76
2023/06/04 13:52:29;;;;;;;;;;;;;;;23.07;34.58;101460.66;2351101;75;52568;-76
2023/06/04 13:55:31;;;;;;;;;;;;;;;23.07;34.62;101458.44;2341463;75;50717;-76
2023/06/04 13:58:32;;;;;;;;;;;;;;;23.07;34.65;101450.34;2336175;75;51443;-76
2023/06/04 14:01:34;;;;;;;;;;;;;;;23.07;34.67;101452.55;2340906;75;50354;-76
2023/06/04 14:04:36;;;;;;;;;;;;;;;23.09;34.71;101447.77;2336600;75;50760;-76
2023/06/04 14:07:38;;;;;;;;;;;;;;;23.09;34.71;101447.77;2336407;76;51417;-76
2023/06/04 14:10:42;;;;;;;;;;;;;;;23.11;34.75;101447.08;2341075;75;50715;-76
2023/06/04 14:13:44;;;;;;;;;;;;;;;23.10;34.77;101441.36;2336622;76;51541;-76
2023/06/04 14:16:46;;;;;;;;;;;;;;;23.11;34.77;101440.84;2321706;75;51230;-75
2023/06/04 14:19:48;;;;;;;;;;;;;;;23.13;34.78;101445.02;2271517;77;50654;-75
2023/06/04 14:22:49;;;;;;;;;;;;;;;23.14;34.81;101436.41;2297083;77;52173;-76
2023/06/04 14:25:51;;;;;;;;;;;;;;;23.14;34.86;101434.53;2297116;76;51470;-77
2023/06/04 14:28:52;;;;;;;;;;;;;;;23.15;34.86;101438.92;2250566;77;54242;-76
2023/06/04 14:31:54;;;;;;;;;;;;;;;23.16;34.86;101445.98;2275871;76;52199;-77
2023/06/04 14:34:57;;;;;;;;;;;;;;;23.16;34.86;101435.17;2297303;76;50702;-76
2023/06/04 14:37:59;;;;;;;;;;;;;;;23.19;34.88;101433.43;2297104;76;50268;-76
2023/06/04 14:41:00;;;;;;;;;;;;;;;23.19;34.90;101438.83;2275919;77;51619;-76
2023/06/04 14:44:02;;;;;;;;;;;;;;;23.19;34.93;101433.43;2297251;76;51165;-77
2023/06/04 14:47:03;;;;;;;;;;;;;;;23.20;34.91;101432.94;2318261;76;51588;-76
2023/06/04 14:50:07;;;;;;;;;;;;;;;23.19;34.97;101432.08;2297093;76;50614;-76
2023/06/04 14:53:08;;;;;;;;;;;;;;;23.20;34.96;101432.42;2251026;77;52517;-75
2023/06/04 14:56:10;;;;;;;;;;;;;;;23.22;34.96;101427.67;2299108;76;51565;-77
2023/06/04 14:59:12;;;;;;;;;;;;;;;23.22;34.96;101421.41;2284939;76;50728;-76
2023/06/04 15:02:19;;;;;;;;;;;;;;;23.23;34.99;101419.87;2284945;77;51584;-77
2023/06/04 15:05:16;;;;;;;;;;;;;;;23.23;35.02;101419.87;2285453;76;22208;-77
2023/06/04 15:08:18;;;;;;;;;;;;;;;23.24;35.01;101416.66;2284757;77;49984;-76
2023/06/04 15:11:20;;;;;;;;;;;;;;;23.26;35.03;101413.25;2301931;76;50261;-76
2023/06/04 15:14:21;;;;;;;;;;;;;;;23.25;35.03;101409.72;2302047;77;50409;-76
2023/06/04 15:17:23;;;;;;;;;;;;;;;23.26;35.04;101411.38;2277675;76;50302;-76
2023/06/04 15:20:27;;;;;;;;;;;;;;;23.27;35.09;101409.50;2284678;77;50253;-76
2023/06/04 15:23:28;;;;;;;;;;;;;;;23.30;35.07;101412.33;2285225;77;22365;-76
2023/06/04 15:26:32;;;;;;;;;;;;;;;23.30;35.08;101412.33;2284572;77;51415;-76
2023/06/04 15:29:34;;;;;;;;;;;;;;;23.31;35.09;101408.62;2259886;77;51197;-76
2023/06/04 15:32:35;;;;;;;;;;;;;;;23.32;35.11;101412.97;2259404;77;51495;-76